Welcome to Trans World Virtual Airlines!

Welcome TWVA's Newest Pilot:

TWA2313 Bryan Heald

Not a Trans World pilot yet?
Apply Now!




Sign-in with your pilot id or email, or register

Flight TWA7858

  • Submitted By: Austin Hill
  • Departure Airport: Kansas City International Airport (KMCI)
  • Arrival Airport: Ronald Reagan Washington National Airport (KDCA)
  • Aircraft: E170 (N173TE)
  • Flight Time: 02.50
  • Date Submitted: 10/03/2018
  • Route: MCI MCM DEC VHP DQN APE MGW ESL AML VORA
  • Status: Accepted
Flight Details
Gross Revenue:
(69 load / $ 265.00 per unit
$ 18, 285.00
Fuel Cost:
(8149 fuel used @ 0.8 / unit)
$ 6, 519.20

Additional Log Information:

View Log

FS[18:27] Aircraft Title - Embraer 170 TWA
FS[18:27] Aircraft Model - E-170
FS[18:27] Flight Number TWA7858
FS[18:27] Departure KMCI
FS[18:27] Destination KDCA
FS[18:27] Boarding
FS[18:35] Pushing Back
FS[18:41] Taxiing to Runway
FS[18:51] Taking Off
FS[18:51] Taking Off
FS[18:51] 152kts
FS[18:51] pitch angle 5 degrees
FS[18:51] 14984 (lbs) of fuel onboard
FS[18:51] Climbing
FS[19:13] TOC Reached
FS[19:13] Cruise 37000
FS[20:28] TOD Reached
FS[20:28] Descending
FS[20:50] On Approach
FS[20:59] Landing Rate -118fpm
FS[20:59] 7795 (lbs) of fuel onboard
FS[20:59] pitch angle 7 degrees
FS[21:00] Taxiing to Gate
FS[21:04] Arrived
FS[21:11] Max Sim Rate: 1x
FS[21:11] kACARS_Free Version 1.0.1.1

Comments

Commenter Comment
Austin Hill KMCI 031824Z 20023G38KT 10 SM BKN080 OVC095 30/20 A2977 // KDCA 032030Z 01010KT 10SM SCT050 BKN250 30/19 A3004

Route Map